createdAt,value
2022-10-18T00:01:28.668Z,14.30
2022-10-18T00:03:58.394Z,12.55
2022-10-18T00:06:30.765Z,13.90
2022-10-18T00:09:00.557Z,18.23
2022-10-18T00:11:30.359Z,12.13
2022-10-18T00:14:00.659Z,11.48
2022-10-18T00:16:30.534Z,13.60
2022-10-18T00:19:00.267Z,16.73
2022-10-18T00:21:32.700Z,15.48
2022-10-18T00:24:02.946Z,17.35
2022-10-18T00:26:33.748Z,13.32
2022-10-18T00:29:07.594Z,13.38
2022-10-18T00:31:39.180Z,16.02
2022-10-18T00:34:10.622Z,13.90
2022-10-18T00:36:43.061Z,11.18
2022-10-18T00:39:18.109Z,16.48
2022-10-18T00:41:49.168Z,14.73
2022-10-18T00:44:48.880Z,18.13
2022-10-18T00:47:19.661Z,15.48
2022-10-18T00:49:53.313Z,14.55
2022-10-18T00:52:30.035Z,14.32
2022-10-18T00:55:00.796Z,13.98
2022-10-18T00:57:30.937Z,12.55
2022-10-18T01:00:00.750Z,13.32
2022-10-18T01:02:32.422Z,13.00
2022-10-18T01:05:04.450Z,14.10
2022-10-18T01:07:53.337Z,13.50
2022-10-18T01:10:32.884Z,13.13
2022-10-18T01:13:19.889Z,12.65
2022-10-18T01:15:59.471Z,10.93
2022-10-18T01:18:35.323Z,10.32
2022-10-18T01:21:14.728Z,13.30
2022-10-18T01:24:04.031Z,9.65
2022-10-18T01:26:53.669Z,9.67
2022-10-18T01:29:35.857Z,12.23
2022-10-18T01:32:12.829Z,10.25
2022-10-18T01:34:45.807Z,17.40
2022-10-18T01:37:20.430Z,11.43
2022-10-18T01:39:51.003Z,22.52
2022-10-18T01:42:23.121Z,11.45
2022-10-18T01:44:55.349Z,20.40
2022-10-18T01:47:28.763Z,10.23
2022-10-18T01:50:02.413Z,12.88
2022-10-18T01:52:32.674Z,16.17
2022-10-18T01:55:04.787Z,7.28
2022-10-18T01:57:41.286Z,9.85
2022-10-18T02:00:17.814Z,9.57
2022-10-18T02:02:54.194Z,9.23
2022-10-18T02:05:32.114Z,9.13
2022-10-18T02:08:22.408Z,9.48
2022-10-18T02:10:58.529Z,7.93
2022-10-18T02:13:32.678Z,10.30
2022-10-18T02:16:10.804Z,7.73
2022-10-18T02:18:47.455Z,7.95
2022-10-18T02:21:20.519Z,7.85
2022-10-18T02:23:51.399Z,8.38
2022-10-18T02:26:21.747Z,8.73
2022-10-18T02:28:51.677Z,7.93
2022-10-18T02:31:28.063Z,8.80
2022-10-18T02:34:05.543Z,11.40
2022-10-18T02:36:40.106Z,8.60
2022-10-18T02:39:15.001Z,8.23
2022-10-18T02:41:45.686Z,13.13
2022-10-18T02:44:15.570Z,13.45
2022-10-18T02:46:46.102Z,12.55
2022-10-18T02:49:18.755Z,11.68
2022-10-18T02:51:48.880Z,10.80
2022-10-18T02:54:18.931Z,15.30
2022-10-18T02:56:48.828Z,11.68
2022-10-18T02:59:19.059Z,16.57
2022-10-18T03:01:49.196Z,10.97
2022-10-18T03:04:21.948Z,11.30
2022-10-18T03:06:51.800Z,9.63
2022-10-18T03:09:21.688Z,6.93
2022-10-18T03:11:51.439Z,10.00
2022-10-18T03:14:21.232Z,7.07
2022-10-18T03:16:50.995Z,9.25
2022-10-18T03:19:23.409Z,14.27
2022-10-18T03:21:53.195Z,8.00
2022-10-18T03:24:23.005Z,16.33
2022-10-18T03:26:52.789Z,10.18
2022-10-18T03:29:22.537Z,11.75
2022-10-18T03:31:52.232Z,7.03
2022-10-18T03:34:24.581Z,10.60
2022-10-18T03:36:55.102Z,7.55
2022-10-18T03:39:24.832Z,9.02
2022-10-18T03:41:54.772Z,7.15
2022-10-18T03:44:24.570Z,12.45
2022-10-18T03:46:54.263Z,9.93
2022-10-18T03:49:26.724Z,7.53
2022-10-18T03:51:56.465Z,15.07
2022-10-18T03:54:26.206Z,15.47
2022-10-18T03:56:55.963Z,6.45
2022-10-18T03:59:25.805Z,8.90
2022-10-18T04:01:55.649Z,6.93
2022-10-18T04:04:28.054Z,5.90
2022-10-18T04:06:57.861Z,6.10
2022-10-18T04:09:27.635Z,8.90
2022-10-18T04:11:57.529Z,11.25
2022-10-18T04:14:27.436Z,7.00
2022-10-18T04:16:57.188Z,7.00
2022-10-18T04:19:29.682Z,5.80
2022-10-18T04:21:59.495Z,7.80
2022-10-18T04:24:29.181Z,6.40
2022-10-18T04:26:58.913Z,6.32
2022-10-18T04:29:28.725Z,7.30
2022-10-18T04:31:58.412Z,8.97
2022-10-18T04:34:30.862Z,5.77
2022-10-18T04:37:00.593Z,6.70
2022-10-18T04:39:30.482Z,14.40
2022-10-18T04:42:00.241Z,6.50
2022-10-18T04:44:29.959Z,9.63
2022-10-18T04:46:59.672Z,7.40
2022-10-18T04:49:32.065Z,6.30
2022-10-18T04:52:01.771Z,8.47
2022-10-18T04:54:31.477Z,8.68
2022-10-18T04:57:01.202Z,8.68
2022-10-18T04:59:31.102Z,6.60
2022-10-18T05:02:00.892Z,8.65
2022-10-18T05:04:33.567Z,5.78
2022-10-18T05:07:03.291Z,9.77
2022-10-18T05:09:32.982Z,11.25
2022-10-18T05:12:02.691Z,8.98
2022-10-18T05:14:32.388Z,15.73
2022-10-18T05:17:02.108Z,7.77
2022-10-18T05:19:34.429Z,9.93
2022-10-18T05:22:04.120Z,5.47
2022-10-18T05:24:33.862Z,5.35
2022-10-18T05:27:03.744Z,8.90
2022-10-18T05:29:33.468Z,8.35
2022-10-18T05:32:03.373Z,11.85
2022-10-18T05:34:35.728Z,6.53
2022-10-18T05:37:05.849Z,6.65
2022-10-18T05:39:35.565Z,6.82
2022-10-18T05:42:05.304Z,12.17
2022-10-18T05:44:35.286Z,9.23
2022-10-18T05:47:04.966Z,6.68
2022-10-18T05:49:37.348Z,15.30
2022-10-18T05:52:07.519Z,10.73
2022-10-18T05:54:37.250Z,23.87
2022-10-18T05:57:07.130Z,6.43
2022-10-18T05:59:36.920Z,8.90
2022-10-18T06:02:06.864Z,10.23
2022-10-18T06:04:39.467Z,11.10
2022-10-18T06:07:12.404Z,5.53
2022-10-18T06:09:42.944Z,6.28
2022-10-18T06:12:12.766Z,5.60
2022-10-18T06:14:42.647Z,5.00
2022-10-18T06:17:12.554Z,5.20
2022-10-18T06:19:45.862Z,5.33
2022-10-18T06:22:15.900Z,8.87
2022-10-18T06:24:45.621Z,12.18
2022-10-18T06:27:15.369Z,24.10
2022-10-18T06:29:45.170Z,5.38
2022-10-18T06:32:14.972Z,6.43
2022-10-18T06:34:47.416Z,5.03
2022-10-18T06:37:17.389Z,5.10
2022-10-18T06:39:47.143Z,4.53
2022-10-18T06:42:19.088Z,5.73
2022-10-18T06:44:51.652Z,5.23
2022-10-18T06:47:21.390Z,5.78
2022-10-18T06:49:53.680Z,5.22
2022-10-18T06:52:25.807Z,5.23
2022-10-18T06:54:55.670Z,4.13
2022-10-18T06:57:25.461Z,4.23
2022-10-18T06:59:55.175Z,3.90
2022-10-18T07:02:24.890Z,4.03
2022-10-18T07:04:57.362Z,3.55
2022-10-18T07:07:27.378Z,3.70
2022-10-18T07:09:57.246Z,4.23
2022-10-18T07:12:27.385Z,4.00
2022-10-18T07:14:57.236Z,3.92
2022-10-18T07:17:27.393Z,3.47
2022-10-18T07:20:00.086Z,4.10
2022-10-18T07:22:30.460Z,3.90
2022-10-18T07:25:00.435Z,3.47
2022-10-18T07:27:30.486Z,3.63
2022-10-18T07:30:00.470Z,3.70
2022-10-18T07:32:30.230Z,3.63
2022-10-18T07:35:02.811Z,3.47
2022-10-18T07:37:33.427Z,3.37
2022-10-18T07:40:03.422Z,3.67
2022-10-18T07:42:33.139Z,5.03
2022-10-18T07:45:02.854Z,5.07
2022-10-18T07:47:35.105Z,5.93
2022-10-18T07:50:08.596Z,5.85
2022-10-18T07:52:38.369Z,5.50
2022-10-18T07:55:08.631Z,3.97
2022-10-18T07:57:38.387Z,4.57
2022-10-18T08:00:09.702Z,4.07
2022-10-18T08:02:39.517Z,5.93
2022-10-18T08:05:12.558Z,6.57
2022-10-18T08:07:42.353Z,8.40
2022-10-18T08:10:12.790Z,5.90
2022-10-18T08:12:42.619Z,7.40
2022-10-18T08:15:13.405Z,6.73
2022-10-18T08:17:55.795Z,6.07
2022-10-18T08:20:31.204Z,5.60
2022-10-18T08:23:02.314Z,9.80
2022-10-18T08:25:33.594Z,11.55
2022-10-18T08:28:03.411Z,9.47
2022-10-18T08:30:33.209Z,5.27
2022-10-18T08:33:02.982Z,8.75
2022-10-18T08:35:35.579Z,12.73
2022-10-18T08:40:56.222Z,11.13
2022-10-18T08:46:06.108Z,6.37
2022-10-18T08:48:41.562Z,10.63
2022-10-18T08:51:23.624Z,9.68
2022-10-18T08:54:02.447Z,6.35
2022-10-18T08:56:32.499Z,11.85
2022-10-18T08:59:04.775Z,7.63
2022-10-18T09:01:46.210Z,5.87
2022-10-18T09:04:33.079Z,10.05
2022-10-18T09:07:32.106Z,11.60
2022-10-18T09:10:10.196Z,11.60
2022-10-18T09:13:02.277Z,15.23
2022-10-18T09:15:42.720Z,9.85
2022-10-18T09:18:45.783Z,6.50
2022-10-18T09:21:22.982Z,7.23
2022-10-18T09:24:04.145Z,11.43
2022-10-18T09:26:39.580Z,8.30
2022-10-18T09:31:54.502Z,5.93
2022-10-18T09:34:31.917Z,12.13
2022-10-18T09:37:03.040Z,9.60
2022-10-18T09:39:39.163Z,10.43
2022-10-18T09:42:17.763Z,5.13
2022-10-18T09:44:51.954Z,7.57
2022-10-18T09:47:26.216Z,10.55
2022-10-18T09:50:00.830Z,10.85
2022-10-18T09:52:39.102Z,11.15
2022-10-18T09:55:18.602Z,8.63
2022-10-18T09:57:53.288Z,8.18
2022-10-18T10:00:27.844Z,7.50
2022-10-18T10:02:57.710Z,11.13
2022-10-18T10:05:27.410Z,11.02
2022-10-18T10:08:02.625Z,7.72
2022-10-18T10:10:36.341Z,7.55
2022-10-18T10:13:08.593Z,9.00
2022-10-18T10:15:42.365Z,13.45
2022-10-18T10:18:23.101Z,7.22
2022-10-18T10:20:55.792Z,8.77
2022-10-18T10:23:29.753Z,7.78
2022-10-18T10:26:04.277Z,8.68
2022-10-18T10:28:39.765Z,7.80
2022-10-18T10:31:22.078Z,6.55
2022-10-18T10:34:02.145Z,9.07
2022-10-18T10:36:33.096Z,6.60
2022-10-18T10:39:09.054Z,7.78
2022-10-18T10:41:43.497Z,8.65
2022-10-18T10:44:19.012Z,6.95
2022-10-18T10:46:51.077Z,7.40
2022-10-18T10:49:40.694Z,10.35
2022-10-18T10:52:28.787Z,10.98
2022-10-18T10:55:34.176Z,8.50
2022-10-18T10:57:55.740Z,7.75
2022-10-18T11:00:45.851Z,14.52
2022-10-18T11:03:33.816Z,9.02
2022-10-18T11:06:04.171Z,8.15
2022-10-18T11:08:39.028Z,11.18
2022-10-18T11:11:23.031Z,6.80
2022-10-18T11:14:21.182Z,8.48
2022-10-18T11:17:05.529Z,6.25
2022-10-18T11:19:44.206Z,6.53
2022-10-18T11:22:19.928Z,4.78
2022-10-18T11:24:49.929Z,7.88
2022-10-18T11:27:26.588Z,6.68
2022-10-18T11:30:21.354Z,9.35
2022-10-18T11:33:02.026Z,6.28
2022-10-18T11:35:41.709Z,11.57
2022-10-18T11:38:32.544Z,11.02
2022-10-18T11:41:24.973Z,7.18
2022-10-18T11:44:02.562Z,8.13
2022-10-18T11:46:50.129Z,7.15
2022-10-18T11:49:37.379Z,9.32
2022-10-18T11:52:14.950Z,10.90
2022-10-18T11:54:56.704Z,6.18
2022-10-18T11:57:43.923Z,7.40
2022-10-18T12:03:23.791Z,5.90
2022-10-18T12:05:55.498Z,6.68
2022-10-18T12:08:32.187Z,8.75
2022-10-18T12:11:06.414Z,7.07
2022-10-18T12:13:42.567Z,11.30
2022-10-18T12:16:13.809Z,8.15
2022-10-18T12:18:55.256Z,10.05
2022-10-18T12:21:28.373Z,13.80
2022-10-18T12:24:01.519Z,8.68
2022-10-18T12:26:32.576Z,7.97
2022-10-18T12:29:13.711Z,8.88
2022-10-18T12:31:48.505Z,8.43
2022-10-18T12:34:43.148Z,5.80
2022-10-18T12:37:51.245Z,9.15
2022-10-18T12:40:26.025Z,4.88
2022-10-18T12:42:56.406Z,5.55
2022-10-18T12:45:35.067Z,7.15
2022-10-18T12:48:08.365Z,7.40
2022-10-18T12:50:45.292Z,6.75
2022-10-18T12:53:22.828Z,9.27
2022-10-18T12:55:54.852Z,7.20
2022-10-18T12:58:33.398Z,10.15
2022-10-18T13:01:08.242Z,8.25
2022-10-18T13:03:54.350Z,7.63
2022-10-18T13:06:27.113Z,7.05
2022-10-18T13:09:20.629Z,6.15
2022-10-18T13:11:51.372Z,6.90
2022-10-18T13:15:05.781Z,4.88
2022-10-18T13:17:47.990Z,7.93
2022-10-18T13:20:27.998Z,7.45
2022-10-18T13:23:30.058Z,8.38
2022-10-18T13:26:13.951Z,9.15
2022-10-18T13:28:54.185Z,9.18
2022-10-18T13:31:31.173Z,12.43
2022-10-18T13:34:28.041Z,13.27
2022-10-18T13:37:03.352Z,10.52
2022-10-18T13:39:36.633Z,7.90
2022-10-18T13:42:23.080Z,8.55
2022-10-18T13:44:52.819Z,10.15
2022-10-18T13:47:41.977Z,6.07
2022-10-18T13:50:29.905Z,8.02
2022-10-18T13:53:37.241Z,8.05
2022-10-18T13:56:46.433Z,4.97
2022-10-18T13:59:42.059Z,8.18
2022-10-18T14:02:51.489Z,5.30
2022-10-18T14:05:44.417Z,5.88
2022-10-18T14:08:18.867Z,7.40
2022-10-18T14:11:03.560Z,6.93
2022-10-18T14:13:44.958Z,8.85
2022-10-18T14:16:30.513Z,4.20
2022-10-18T14:19:14.358Z,6.20
2022-10-18T14:21:51.826Z,4.80
2022-10-18T14:24:25.472Z,4.55
2022-10-18T14:27:19.777Z,4.97
2022-10-18T14:29:53.679Z,5.75
2022-10-18T14:32:28.375Z,8.68
2022-10-18T14:35:30.522Z,5.88
2022-10-18T14:37:51.123Z,6.05
2022-10-18T14:40:36.499Z,6.40
2022-10-18T14:43:09.339Z,5.78
2022-10-18T14:45:42.095Z,5.72
2022-10-18T14:48:18.175Z,7.05
2022-10-18T14:50:51.241Z,5.15
2022-10-18T14:53:25.288Z,5.20
2022-10-18T14:56:00.862Z,8.32
2022-10-18T14:58:31.129Z,6.82
2022-10-18T15:01:03.590Z,5.95
2022-10-18T15:03:38.008Z,6.20
2022-10-18T15:06:09.716Z,4.90
2022-10-18T15:08:42.099Z,5.00
2022-10-18T15:11:14.461Z,7.05
2022-10-18T15:13:51.465Z,4.35
2022-10-18T15:16:27.114Z,5.47
2022-10-18T15:19:09.189Z,4.90
2022-10-18T15:21:39.373Z,3.97
2022-10-18T15:24:32.355Z,6.80
2022-10-18T15:27:06.308Z,3.58
2022-10-18T15:29:37.765Z,5.43
2022-10-18T15:32:17.719Z,4.40
2022-10-18T15:34:47.926Z,4.53
2022-10-18T15:37:21.075Z,4.38
2022-10-18T15:39:50.861Z,4.45
2022-10-18T15:42:47.597Z,6.43
2022-10-18T15:45:48.779Z,8.40
2022-10-18T15:48:26.817Z,3.60
2022-10-18T15:51:01.301Z,5.82
2022-10-18T15:53:37.481Z,9.98
2022-10-18T15:56:09.526Z,5.50
2022-10-18T15:58:44.986Z,4.63
2022-10-18T16:01:20.663Z,4.93
2022-10-18T16:06:24.236Z,3.22
2022-10-18T16:08:55.950Z,5.07
2022-10-18T16:11:27.379Z,3.55
2022-10-18T16:13:59.662Z,5.18
2022-10-18T16:16:32.412Z,4.57
2022-10-18T16:19:05.696Z,2.00
2022-10-18T16:21:37.404Z,2.85
2022-10-18T16:24:08.959Z,3.17
2022-10-18T16:26:40.367Z,3.60
2022-10-18T16:29:15.033Z,3.83
2022-10-18T16:31:46.840Z,4.55
2022-10-18T16:34:19.316Z,4.40
2022-10-18T16:36:49.191Z,2.58
2022-10-18T16:39:21.278Z,3.40
2022-10-18T16:41:51.520Z,3.00
2022-10-18T16:47:42.299Z,4.13
2022-10-18T16:50:22.831Z,4.53
2022-10-18T16:52:52.642Z,8.80
2022-10-18T16:55:25.131Z,3.75
2022-10-18T16:57:54.997Z,2.90
2022-10-18T17:00:25.959Z,3.20
2022-10-18T17:02:55.712Z,2.13
2022-10-18T17:05:31.285Z,3.58
2022-10-18T17:08:01.208Z,2.70
2022-10-18T17:10:31.095Z,5.18
2022-10-18T17:13:00.857Z,3.15
2022-10-18T17:15:32.950Z,3.28
2022-10-18T17:18:06.110Z,6.88
2022-10-18T17:20:38.506Z,3.65
2022-10-18T17:23:08.885Z,3.28
2022-10-18T17:25:46.431Z,1.45
2022-10-18T17:28:27.537Z,2.78
2022-10-18T17:30:57.255Z,3.58
2022-10-18T17:33:26.957Z,4.88
2022-10-18T17:35:59.283Z,1.60
2022-10-18T17:38:29.091Z,4.53
2022-10-18T17:40:58.854Z,3.10
2022-10-18T17:43:29.012Z,4.25
2022-10-18T17:45:59.354Z,2.80
2022-10-18T17:48:29.305Z,2.67
2022-10-18T17:51:01.681Z,3.75
2022-10-18T17:53:32.996Z,3.33
2022-10-18T17:56:03.144Z,2.42
2022-10-18T17:58:34.064Z,3.38
2022-10-18T18:01:11.715Z,2.25
2022-10-18T18:03:41.808Z,3.20
2022-10-18T18:06:19.437Z,2.55
2022-10-18T18:08:49.766Z,2.00
2022-10-18T18:11:20.989Z,2.92
2022-10-18T18:13:50.692Z,1.63
2022-10-18T18:16:23.313Z,4.45
2022-10-18T18:18:54.982Z,2.55
2022-10-18T18:21:28.478Z,1.40
2022-10-18T18:23:58.673Z,1.98
2022-10-18T18:26:29.053Z,4.53
2022-10-18T18:28:58.874Z,2.67
2022-10-18T18:31:34.400Z,1.60
2022-10-18T18:34:08.655Z,6.03
2022-10-18T18:36:41.080Z,3.72
2022-10-18T18:39:11.890Z,3.38
2022-10-18T18:41:41.611Z,2.42
2022-10-18T18:44:11.321Z,2.30
2022-10-18T18:46:41.038Z,2.28
2022-10-18T18:49:10.901Z,4.05
2022-10-18T18:51:44.433Z,3.17
2022-10-18T18:54:17.284Z,7.60
2022-10-18T18:56:47.305Z,2.25
2022-10-18T18:59:17.874Z,3.88
2022-10-18T19:01:47.700Z,6.75
2022-10-18T19:04:17.533Z,5.47
2022-10-18T19:06:49.869Z,6.45
2022-10-18T19:09:22.673Z,4.75
2022-10-18T19:11:53.840Z,6.20
2022-10-18T19:14:25.774Z,4.15
2022-10-18T19:16:58.857Z,4.22
2022-10-18T19:19:30.431Z,6.38
2022-10-18T19:22:05.145Z,2.95
2022-10-18T19:24:34.942Z,2.58
2022-10-18T19:27:08.998Z,5.57
2022-10-18T19:29:41.164Z,4.95
2022-10-18T19:32:15.152Z,5.75
2022-10-18T19:34:45.259Z,3.17
2022-10-18T19:37:18.617Z,5.72
2022-10-18T19:39:48.878Z,4.90
2022-10-18T19:42:22.710Z,5.32
2022-10-18T19:44:55.987Z,4.47
2022-10-18T19:47:25.652Z,5.10
2022-10-18T19:49:55.603Z,5.03
2022-10-18T19:52:28.541Z,6.00
2022-10-18T19:54:58.469Z,4.63
2022-10-18T19:57:28.951Z,7.93
2022-10-18T20:00:00.032Z,5.97
2022-10-18T20:02:31.165Z,4.40
2022-10-18T20:05:02.408Z,5.18
2022-10-18T20:07:34.747Z,5.10
2022-10-18T20:10:04.446Z,3.78
2022-10-18T20:12:34.393Z,3.45
2022-10-18T20:15:04.373Z,3.27
2022-10-18T20:17:34.211Z,2.30
2022-10-18T20:20:03.948Z,5.47
2022-10-18T20:22:37.229Z,4.60
2022-10-18T20:25:07.650Z,3.72
2022-10-18T20:27:37.410Z,3.13
2022-10-18T20:30:10.528Z,3.00
2022-10-18T20:32:42.070Z,3.88
2022-10-18T20:35:12.881Z,3.60
2022-10-18T20:37:45.249Z,4.00
2022-10-18T20:40:16.091Z,1.83
2022-10-18T20:42:45.888Z,3.45
2022-10-18T20:45:15.577Z,1.60
2022-10-18T20:47:45.580Z,1.60
2022-10-18T20:50:15.318Z,2.03
2022-10-18T20:52:51.299Z,3.28
2022-10-18T20:55:21.329Z,3.97
2022-10-18T20:57:51.009Z,3.83
2022-10-18T21:00:20.921Z,2.45
2022-10-18T21:02:50.608Z,2.72
2022-10-18T21:05:20.386Z,3.43
2022-10-18T21:07:52.759Z,2.47
2022-10-18T21:10:22.490Z,2.80
2022-10-18T21:12:52.181Z,3.67
2022-10-18T21:15:22.409Z,3.22
2022-10-18T21:17:55.411Z,1.73
2022-10-18T21:20:25.169Z,3.55
2022-10-18T21:22:57.577Z,2.42
2022-10-18T21:25:27.272Z,1.60
2022-10-18T21:27:56.951Z,3.95
2022-10-18T21:30:26.702Z,3.00
2022-10-18T21:32:56.520Z,4.72
2022-10-18T21:35:26.405Z,2.00
2022-10-18T21:37:58.729Z,1.37
2022-10-18T21:40:28.473Z,1.77
2022-10-18T21:42:58.423Z,3.33
2022-10-18T21:45:28.341Z,3.17
2022-10-18T21:47:58.068Z,2.25
2022-10-18T21:50:27.908Z,2.63
2022-10-18T21:53:00.400Z,4.03
2022-10-18T21:55:30.154Z,1.60
2022-10-18T21:57:59.889Z,3.35
2022-10-18T22:00:29.621Z,3.63
2022-10-18T22:03:09.566Z,2.38
2022-10-18T22:05:39.542Z,3.38
2022-10-18T22:08:12.235Z,2.35
2022-10-18T22:10:42.070Z,1.90
2022-10-18T22:13:12.036Z,1.92
2022-10-18T22:15:41.860Z,3.58
2022-10-18T22:18:11.605Z,2.78
2022-10-18T22:20:41.621Z,4.10
2022-10-18T22:23:14.239Z,2.60
2022-10-18T22:25:43.926Z,2.08
2022-10-18T22:28:13.733Z,1.95
2022-10-18T22:30:43.603Z,3.65
2022-10-18T22:33:13.320Z,1.73
2022-10-18T22:35:43.043Z,1.48
2022-10-18T22:38:15.667Z,2.05
2022-10-18T22:40:45.537Z,1.83
2022-10-18T22:43:15.355Z,2.42
2022-10-18T22:45:45.060Z,1.33
2022-10-18T22:48:14.747Z,3.17
2022-10-18T22:50:44.468Z,2.38
2022-10-18T22:53:16.811Z,1.43
2022-10-18T22:55:46.577Z,2.25
2022-10-18T22:58:16.266Z,3.58
2022-10-18T23:00:46.014Z,2.20
2022-10-18T23:03:18.216Z,2.65
2022-10-18T23:05:49.418Z,2.45
2022-10-18T23:08:21.788Z,2.57
2022-10-18T23:10:55.585Z,2.75
2022-10-18T23:13:26.495Z,2.28
2022-10-18T23:15:56.645Z,4.63
2022-10-18T23:18:26.330Z,3.60
2022-10-18T23:21:03.469Z,4.18
2022-10-18T23:23:38.330Z,3.38
2022-10-18T23:26:10.288Z,4.65
2022-10-18T23:28:41.589Z,4.57
2022-10-18T23:31:12.825Z,3.80
2022-10-18T23:33:43.238Z,2.35
2022-10-18T23:36:13.890Z,2.50
2022-10-18T23:38:46.620Z,3.05
2022-10-18T23:41:17.926Z,3.60
2022-10-18T23:43:49.456Z,5.57
2022-10-18T23:46:20.739Z,3.63
2022-10-18T23:48:51.194Z,6.18
2022-10-18T23:51:21.218Z,3.38
2022-10-18T23:53:53.576Z,12.00
2022-10-18T23:56:23.309Z,4.47
2022-10-18T23:58:53.078Z,5.78
